Time;durP1;ratioP1;P1;durP2;ratioP2;P2;SDS_P1;SDS_P2;PMS_P1;PMS_P2;Temp;Humidity;BMP_temperature;BMP_pressure;BME280_temperature;BME280_humidity;BME280_pressure;Samples;Min_cycle;Max_cycle;Signal;HPM_P1;HPM_P2
2023/07/22 00:01:19;;;;;;;4.30;2.88;;;13.10;99.90;;;;;;5109873;28;20046;-75
2023/07/22 00:03:45;;;;;;;3.58;2.47;;;13.10;99.90;;;;;;5098892;28;20051;-75
2023/07/22 00:06:11;;;;;;;4.18;2.70;;;13.10;99.90;;;;;;5109411;27;20035;-75
2023/07/22 00:08:38;;;;;;;4.32;2.60;;;13.10;99.90;;;;;;5095274;28;20111;-75
2023/07/22 00:11:07;;;;;;;3.63;2.60;;;13.00;99.90;;;;;;5114233;27;20127;-73
2023/07/22 00:13:34;;;;;;;4.63;3.08;;;13.00;99.90;;;;;;5106416;28;20117;-74
2023/07/22 00:16:00;;;;;;;3.90;2.80;;;12.90;99.90;;;;;;5095950;28;20050;-74
2023/07/22 00:18:30;;;;;;;;;;;12.90;99.90;;;;;;5100292;27;20040;-74
2023/07/22 00:20:56;;;;;;;4.38;3.05;;;12.90;99.90;;;;;;5111118;28;20410;-74
2023/07/22 00:23:22;;;;;;;;;;;12.80;99.90;;;;;;5115648;28;20047;-74
2023/07/22 00:25:49;;;;;;;3.67;2.53;;;12.80;99.90;;;;;;5098561;28;19916;-74
2023/07/22 00:28:15;;;;;;;3.60;2.63;;;12.80;99.90;;;;;;5103102;28;20092;-75
2023/07/22 00:30:41;;;;;;;4.32;2.90;;;12.70;99.90;;;;;;5110200;28;20036;-75
2023/07/22 00:33:08;;;;;;;4.07;2.88;;;12.80;99.90;;;;;;5109588;28;20044;-75
2023/07/22 00:35:33;;;;;;;;;;;12.70;99.90;;;;;;5095503;28;20479;-75
2023/07/22 00:38:00;;;;;;;3.75;2.58;;;12.70;99.90;;;;;;5092032;28;19927;-75
2023/07/22 00:40:26;;;;;;;3.92;2.50;;;12.70;99.90;;;;;;5087252;28;20051;-75
2023/07/22 00:42:52;;;;;;;3.28;2.30;;;12.60;99.90;;;;;;5113516;28;20058;-75
2023/07/22 00:45:18;;;;;;;4.45;2.80;;;12.60;99.90;;;;;;5108737;28;20406;-75
2023/07/22 00:47:45;;;;;;;3.63;2.40;;;12.60;99.90;;;;;;5080899;28;20040;-75
2023/07/22 00:50:10;;;;;;;4.38;2.80;;;12.60;99.90;;;;;;5129329;27;20046;-75
2023/07/22 00:52:37;;;;;;;4.53;2.80;;;12.50;99.90;;;;;;5093138;28;20032;-75
2023/07/22 00:55:05;;;;;;;4.32;2.00;;;12.50;99.90;;;;;;5098039;28;20498;-75
2023/07/22 00:57:31;;;;;;;3.05;2.05;;;12.50;99.90;;;;;;5114808;28;20039;-75
2023/07/22 00:59:57;;;;;;;2.88;2.10;;;12.50;99.90;;;;;;5103436;28;20082;-75
2023/07/22 01:02:23;;;;;;;3.60;2.00;;;12.50;99.90;;;;;;5122436;28;20112;-75
2023/07/22 01:04:49;;;;;;;;;;;12.50;99.90;;;;;;5090286;28;20032;-75
2023/07/22 01:07:15;;;;;;;4.07;2.45;;;12.50;99.90;;;;;;5086451;28;20327;-75
2023/07/22 01:09:42;;;;;;;2.33;1.70;;;12.40;99.90;;;;;;5081609;28;20043;-76
2023/07/22 01:12:09;;;;;;;2.50;1.80;;;12.40;99.90;;;;;;5112196;27;20524;-75
2023/07/22 01:14:36;;;;;;;2.85;1.73;;;12.40;99.90;;;;;;5106428;28;20130;-75
2023/07/22 01:17:04;;;;;;;2.03;1.50;;;12.40;99.90;;;;;;5110490;28;20042;-75
2023/07/22 01:19:31;;;;;;;2.17;1.42;;;12.40;99.90;;;;;;5095733;28;20051;-75
2023/07/22 01:21:57;;;;;;;;;;;12.40;99.90;;;;;;5110460;28;20079;-75
2023/07/22 01:24:23;;;;;;;2.10;1.60;;;12.40;99.90;;;;;;5101261;28;19923;-75
2023/07/22 01:26:49;;;;;;;2.60;1.70;;;12.30;99.90;;;;;;5112540;28;20075;-75
2023/07/22 01:29:15;;;;;;;2.30;1.58;;;12.30;99.90;;;;;;5112251;28;20051;-74
2023/07/22 01:31:41;;;;;;;2.50;1.60;;;12.30;99.90;;;;;;5112219;28;20039;-74
2023/07/22 01:34:06;;;;;;;2.05;1.52;;;12.20;99.90;;;;;;5111492;28;20519;-74
2023/07/22 01:36:32;;;;;;;2.70;1.85;;;12.20;99.90;;;;;;5095450;28;20039;-75
2023/07/22 01:38:58;;;;;;;2.30;1.50;;;12.20;99.90;;;;;;5066287;28;20039;-75
2023/07/22 01:41:24;;;;;;;1.90;1.33;;;12.20;99.90;;;;;;5111748;28;20059;-75
2023/07/22 01:43:50;;;;;;;1.60;1.23;;;12.20;99.90;;;;;;5100552;28;20093;-75
2023/07/22 01:46:16;;;;;;;1.58;1.20;;;12.20;99.90;;;;;;5105259;28;20084;-75
2023/07/22 01:48:42;;;;;;;;;;;12.10;99.90;;;;;;5092534;28;20044;-75
2023/07/22 01:51:08;;;;;;;2.10;1.30;;;12.10;99.90;;;;;;5105298;28;19942;-75
2023/07/22 01:53:34;;;;;;;;;;;12.00;99.90;;;;;;5104534;28;20447;-75
2023/07/22 01:56:00;;;;;;;1.75;1.40;;;12.00;99.90;;;;;;5112169;28;19966;-72
2023/07/22 01:58:25;;;;;;;1.10;1.00;;;12.00;99.90;;;;;;5104506;28;20043;-72
2023/07/22 02:00:51;;;;;;;1.83;1.33;;;11.90;99.90;;;;;;5083296;28;20036;-72
2023/07/22 02:03:17;;;;;;;1.35;1.00;;;11.90;99.90;;;;;;5099405;28;20044;-72
2023/07/22 02:05:43;;;;;;;1.50;0.90;;;11.90;99.90;;;;;;5110584;28;20439;-72
2023/07/22 02:08:10;;;;;;;1.05;0.82;;;11.90;99.90;;;;;;5102762;28;20070;-71
2023/07/22 02:10:35;;;;;;;1.60;1.00;;;11.90;99.90;;;;;;5104399;28;20036;-71
2023/07/22 02:13:03;;;;;;;1.75;1.08;;;11.90;99.90;;;;;;5125720;27;20144;-71
2023/07/22 02:15:28;;;;;;;1.27;0.98;;;11.90;99.90;;;;;;5118616;27;20034;-72
2023/07/22 02:17:55;;;;;;;1.13;1.00;;;11.90;99.90;;;;;;5135534;27;20266;-72
2023/07/22 02:20:20;;;;;;;1.75;1.30;;;11.80;99.90;;;;;;5113913;27;20049;-72
2023/07/22 02:22:46;;;;;;;2.63;1.27;;;11.80;99.90;;;;;;5107760;27;20034;-72
2023/07/22 02:25:12;;;;;;;1.77;1.17;;;11.80;99.90;;;;;;5134811;27;20079;-72
2023/07/22 02:27:40;;;;;;;1.67;1.10;;;11.80;99.90;;;;;;5131778;27;20042;-72
2023/07/22 02:30:09;;;;;;;1.42;1.13;;;11.80;99.90;;;;;;5133923;27;20047;-72
2023/07/22 02:32:39;;;;;;;1.42;0.95;;;11.70;99.90;;;;;;5114952;27;20400;-72
2023/07/22 02:35:07;;;;;;;1.67;1.08;;;11.70;99.90;;;;;;5128123;27;20318;-72
2023/07/22 02:37:34;;;;;;;1.52;0.90;;;11.70;99.90;;;;;;5129852;27;20035;-72
2023/07/22 02:40:00;;;;;;;1.60;1.00;;;11.70;99.90;;;;;;5126162;27;20102;-73
2023/07/22 02:42:25;;;;;;;1.67;0.98;;;11.70;99.90;;;;;;5132134;27;20113;-73
2023/07/22 02:44:51;;;;;;;2.33;1.20;;;11.60;99.90;;;;;;5109390;27;20134;-72
2023/07/22 02:47:18;;;;;;;1.17;0.90;;;11.60;99.90;;;;;;5114406;27;20054;-72
2023/07/22 02:49:43;;;;;;;1.15;1.00;;;11.70;99.90;;;;;;5131989;27;20039;-73
2023/07/22 02:52:10;;;;;;;2.40;1.00;;;11.60;99.90;;;;;;5135066;27;20126;-72
2023/07/22 02:54:40;;;;;;;1.27;1.05;;;11.60;99.90;;;;;;5116914;27;20125;-73
2023/07/22 02:57:06;;;;;;;2.10;1.23;;;11.60;99.90;;;;;;5134328;27;20039;-73
2023/07/22 02:59:33;;;;;;;1.63;1.08;;;11.60;99.90;;;;;;5129292;27;20046;-75
2023/07/22 03:01:58;;;;;;;1.15;0.95;;;11.50;99.90;;;;;;5134906;27;20393;-75
2023/07/22 03:04:24;;;;;;;1.63;1.10;;;11.50;99.90;;;;;;5128797;27;20038;-75
2023/07/22 03:06:50;;;;;;;1.67;1.10;;;11.50;99.90;;;;;;5134973;27;20042;-72
2023/07/22 03:09:15;;;;;;;1.50;0.90;;;11.50;99.90;;;;;;5128573;27;20415;-72
2023/07/22 03:11:41;;;;;;;1.88;1.02;;;11.50;99.90;;;;;;5116855;27;20034;-73
2023/07/22 03:14:07;;;;;;;1.35;0.90;;;11.40;99.90;;;;;;5116951;27;20126;-72
2023/07/22 03:16:32;;;;;;;1.33;0.82;;;11.30;99.90;;;;;;5117234;27;20397;-73
2023/07/22 03:18:58;;;;;;;1.88;1.17;;;11.30;99.90;;;;;;5133354;27;20066;-73
2023/07/22 03:21:24;;;;;;;2.08;1.17;;;11.30;99.90;;;;;;5111462;27;20043;-72
2023/07/22 03:23:50;;;;;;;2.08;1.05;;;11.30;99.90;;;;;;5133040;27;20042;-72
2023/07/22 03:26:16;;;;;;;1.90;1.25;;;11.30;99.90;;;;;;5128807;27;20062;-72
2023/07/22 03:28:41;;;;;;;1.85;1.15;;;11.30;99.90;;;;;;5131324;27;20042;-72
2023/07/22 03:31:10;;;;;;;0.98;0.85;;;11.20;99.90;;;;;;5094182;27;20495;-73
2023/07/22 03:33:36;;;;;;;1.58;1.00;;;11.20;99.90;;;;;;5133852;27;20042;-73
2023/07/22 03:36:02;;;;;;;1.45;1.08;;;11.30;99.90;;;;;;5111275;27;20042;-73
2023/07/22 03:38:28;;;;;;;1.58;1.17;;;11.30;99.90;;;;;;5134217;27;20060;-72
2023/07/22 03:40:53;;;;;;;2.03;1.30;;;11.30;99.90;;;;;;5146701;27;20493;-73
2023/07/22 03:43:19;;;;;;;2.17;1.20;;;11.20;99.90;;;;;;5133580;27;20046;-73
2023/07/22 03:45:45;;;;;;;1.65;1.23;;;11.30;99.90;;;;;;5120162;27;20121;-73
2023/07/22 03:48:10;;;;;;;1.88;1.30;;;11.20;99.90;;;;;;5133918;27;20046;-73
2023/07/22 03:50:36;;;;;;;2.03;1.23;;;11.30;99.90;;;;;;5129457;27;20055;-73
2023/07/22 03:53:02;;;;;;;1.98;1.15;;;11.30;99.90;;;;;;5116244;27;20040;-73
2023/07/22 03:55:27;;;;;;;1.70;1.20;;;11.30;99.90;;;;;;5133684;27;20392;-73
2023/07/22 03:57:53;;;;;;;1.25;0.93;;;11.30;99.90;;;;;;5133986;27;20537;-73
2023/07/22 04:00:21;;;;;;;2.05;1.30;;;11.40;99.90;;;;;;5131903;27;20464;-74
2023/07/22 04:02:46;;;;;;;2.65;1.42;;;11.40;99.90;;;;;;5131230;27;20043;-73
2023/07/22 04:05:12;;;;;;;1.85;1.38;;;11.40;99.90;;;;;;5113629;27;20446;-72
2023/07/22 04:07:39;;;;;;;2.33;1.50;;;11.40;99.90;;;;;;5132373;27;20135;-73
2023/07/22 04:10:05;;;;;;;2.88;1.60;;;11.50;99.90;;;;;;5132038;27;20066;-73
2023/07/22 04:12:31;;;;;;;2.28;1.55;;;11.60;99.90;;;;;;5116267;27;20042;-73
2023/07/22 04:14:57;;;;;;;1.95;1.20;;;11.60;99.90;;;;;;5129200;27;20095;-73
2023/07/22 04:17:23;;;;;;;1.85;1.35;;;11.60;99.90;;;;;;5133788;27;20391;-73
2023/07/22 04:19:51;;;;;;;2.70;1.73;;;11.70;99.90;;;;;;5131879;27;20142;-73
2023/07/22 04:22:17;;;;;;;2.30;1.70;;;11.70;99.90;;;;;;5133340;27;20129;-73
2023/07/22 04:24:43;;;;;;;1.70;1.38;;;11.80;99.90;;;;;;5133166;27;20125;-73
2023/07/22 04:27:08;;;;;;;2.05;1.30;;;11.90;99.90;;;;;;5111613;28;20095;-73
2023/07/22 04:29:35;;;;;;;1.77;1.20;;;11.90;99.90;;;;;;5123695;27;20514;-73
2023/07/22 04:32:01;;;;;;;2.30;1.50;;;11.90;99.90;;;;;;5151452;27;20348;-73
2023/07/22 04:34:31;;;;;;;1.92;1.23;;;12.00;99.90;;;;;;5132994;27;20039;-73
2023/07/22 04:36:57;;;;;;;1.65;1.15;;;12.00;99.90;;;;;;5122692;27;20054;-73
2023/07/22 04:39:24;;;;;;;1.20;1.02;;;12.10;99.90;;;;;;5133158;27;20507;-73
2023/07/22 04:41:49;;;;;;;;;;;12.10;99.90;;;;;;5124564;27;20158;-73
2023/07/22 04:44:15;;;;;;;3.00;1.65;;;12.10;99.90;;;;;;5137407;27;20327;-73
2023/07/22 04:46:41;;;;;;;2.30;1.60;;;12.10;99.90;;;;;;5136599;27;20065;-73
2023/07/22 04:49:06;;;;;;;2.40;1.65;;;12.20;99.90;;;;;;5119647;27;20061;-73
2023/07/22 04:51:32;;;;;;;2.13;1.58;;;12.30;99.90;;;;;;5135444;27;20046;-73
2023/07/22 04:53:58;;;;;;;2.80;1.95;;;12.30;99.90;;;;;;5137112;27;20473;-73
2023/07/22 04:56:24;;;;;;;2.67;1.80;;;12.20;99.90;;;;;;5136288;27;20047;-73
2023/07/22 04:58:49;;;;;;;2.60;1.70;;;12.30;99.90;;;;;;5097344;27;20039;-73
2023/07/22 05:01:15;;;;;;;2.70;1.70;;;12.30;99.90;;;;;;5119385;27;20038;-74
2023/07/22 05:03:41;;;;;;;2.65;1.75;;;12.40;99.90;;;;;;5137277;27;20049;-74
2023/07/22 05:06:08;;;;;;;2.15;1.65;;;12.40;99.90;;;;;;5136627;27;20389;-73
2023/07/22 05:08:37;;;;;;;2.22;1.40;;;12.50;99.90;;;;;;5117000;27;20038;-74
2023/07/22 05:11:04;;;;;;;2.58;1.60;;;12.50;99.90;;;;;;5113232;27;21217;-73
2023/07/22 05:13:29;;;;;;;2.03;1.55;;;12.60;99.90;;;;;;5116323;27;20827;-74
2023/07/22 05:15:55;;;;;;;2.10;1.52;;;12.60;99.90;;;;;;5113440;27;20125;-73
2023/07/22 05:18:21;;;;;;;2.40;1.60;;;12.60;99.90;;;;;;5136444;27;20102;-73
2023/07/22 05:20:46;;;;;;;2.13;1.65;;;12.60;99.90;;;;;;5127900;27;20042;-73
2023/07/22 05:23:12;;;;;;;1.77;1.48;;;12.70;99.90;;;;;;5136786;27;20106;-73
2023/07/22 05:25:38;;;;;;;2.20;1.60;;;12.70;99.90;;;;;;5119704;27;20045;-72
2023/07/22 05:28:04;;;;;;;2.83;2.08;;;12.80;99.90;;;;;;5155109;27;20065;-73
2023/07/22 05:30:29;;;;;;;2.80;1.67;;;12.80;99.90;;;;;;5136107;27;20046;-72
2023/07/22 05:32:55;;;;;;;3.00;2.20;;;12.90;99.90;;;;;;5154247;27;20042;-73
2023/07/22 05:35:21;;;;;;;3.00;2.08;;;12.90;99.90;;;;;;5136457;27;20103;-73
2023/07/22 05:37:46;;;;;;;3.13;2.10;;;13.00;99.90;;;;;;5135550;27;20412;-73
2023/07/22 05:40:13;;;;;;;3.05;2.20;;;13.00;99.90;;;;;;5136332;27;20034;-73
2023/07/22 05:42:38;;;;;;;2.70;1.85;;;13.10;99.90;;;;;;5133739;27;20053;-72
2023/07/22 05:45:04;;;;;;;3.25;2.10;;;13.30;99.90;;;;;;5119017;27;20046;-73
2023/07/22 05:47:30;;;;;;;3.05;2.05;;;13.30;99.90;;;;;;5135991;27;20043;-72
2023/07/22 05:49:56;;;;;;;2.85;2.20;;;13.40;99.90;;;;;;5136129;27;20047;-73
2023/07/22 05:52:21;;;;;;;3.20;2.33;;;13.50;99.90;;;;;;5131809;27;20026;-75
2023/07/22 05:54:47;;;;;;;3.55;2.47;;;13.60;99.90;;;;;;5132319;27;20042;-75
2023/07/22 05:57:13;;;;;;;4.35;2.70;;;13.60;99.90;;;;;;5116707;27;20047;-75
2023/07/22 05:59:40;;;;;;;3.90;2.90;;;13.70;99.90;;;;;;5136007;27;20485;-76
2023/07/22 06:02:07;;;;;;;3.78;2.78;;;13.80;99.90;;;;;;5135773;27;20046;-75
2023/07/22 06:04:33;;;;;;;3.33;2.42;;;13.80;99.90;;;;;;5135657;27;20534;-76
2023/07/22 06:06:59;;;;;;;2.63;2.30;;;13.90;99.90;;;;;;5153678;27;20043;-75
2023/07/22 06:09:25;;;;;;;2.58;2.00;;;14.00;99.90;;;;;;5118435;27;20041;-76
2023/07/22 06:11:51;;;;;;;3.80;2.40;;;14.10;99.90;;;;;;5114586;27;20429;-75
2023/07/22 06:14:16;;;;;;;4.00;2.55;;;14.10;99.90;;;;;;5132603;27;20041;-75
2023/07/22 06:16:42;;;;;;;4.43;2.50;;;14.20;99.90;;;;;;5116598;27;20088;-72
2023/07/22 06:19:08;;;;;;;3.42;2.78;;;14.30;99.90;;;;;;5135646;27;20037;-73
2023/07/22 06:21:33;;;;;;;5.57;3.95;;;14.40;99.90;;;;;;5134757;27;20094;-72
2023/07/22 06:23:59;;;;;;;5.85;3.85;;;14.40;99.90;;;;;;5153997;27;20039;-72
2023/07/22 06:26:25;;;;;;;5.00;3.65;;;14.50;99.90;;;;;;5152172;27;20042;-72
2023/07/22 06:28:50;;;;;;;6.20;3.85;;;14.60;99.90;;;;;;5135165;27;20038;-72
2023/07/22 06:31:18;;;;;;;5.10;4.22;;;14.70;99.90;;;;;;5134582;27;20066;-71
2023/07/22 06:33:43;;;;;;;4.25;3.50;;;14.70;99.90;;;;;;5154156;27;20481;-72
2023/07/22 06:36:09;;;;;;;5.13;3.90;;;14.80;99.90;;;;;;5135049;27;20034;-72
2023/07/22 06:38:35;;;;;;;4.47;3.70;;;14.90;99.90;;;;;;5134936;27;20107;-72
2023/07/22 06:41:00;;;;;;;5.63;3.92;;;15.00;99.90;;;;;;5135678;27;20049;-72
2023/07/22 06:43:26;;;;;;;5.50;4.22;;;15.20;99.90;;;;;;5134996;27;20125;-72
2023/07/22 06:45:52;;;;;;;5.75;4.32;;;15.40;99.90;;;;;;5133796;27;20044;-72
2023/07/22 06:48:17;;;;;;;6.55;4.38;;;15.50;99.90;;;;;;5134775;27;20051;-72
2023/07/22 06:50:52;;;;;;;5.07;3.38;;;15.60;99.90;;;;;;5118042;27;20458;-72
2023/07/22 06:53:18;;;;;;;5.32;3.90;;;15.70;99.90;;;;;;5134323;27;20126;-72
2023/07/22 06:55:51;;;;;;;5.50;4.03;;;15.90;99.90;;;;;;5109517;27;20043;-72
2023/07/22 06:58:17;;;;;;;7.15;4.80;;;15.90;99.90;;;;;;5153173;27;20350;-73
2023/07/22 07:00:43;;;;;;;;;;;15.90;99.90;;;;;;5134674;27;20053;-72
2023/07/22 07:03:08;;;;;;;5.97;4.95;;;16.00;99.90;;;;;;5113733;27;19915;-73
2023/07/22 07:05:34;;;;;;;5.53;4.25;;;16.10;99.90;;;;;;5134952;27;20050;-71
2023/07/22 07:08:00;;;;;;;;;;;16.30;99.90;;;;;;5134569;27;20532;-72
2023/07/22 07:10:26;;;;;;;5.97;3.92;;;16.40;99.90;;;;;;5134905;27;20014;-73
2023/07/22 07:12:51;;;;;;;4.82;3.80;;;16.50;99.90;;;;;;5133364;27;20497;-72
2023/07/22 07:15:18;;;;;;;4.88;3.20;;;16.60;99.90;;;;;;5134813;27;20046;-71
2023/07/22 07:17:44;;;;;;;4.47;3.75;;;16.80;99.90;;;;;;5131038;27;20039;-72
2023/07/22 07:20:10;;;;;;;5.82;4.10;;;16.80;99.90;;;;;;5116940;27;20504;-72
2023/07/22 07:22:36;;;;;;;;;;;16.80;99.90;;;;;;5129922;27;20137;-72
2023/07/22 07:25:02;;;;;;;6.07;4.50;;;16.80;61.50;;;;;;5110002;27;19915;-76
2023/07/22 07:27:27;;;;;;;;;;;16.60;99.90;;;;;;5152397;27;20043;-74
2023/07/22 07:29:54;;;;;;;7.28;4.95;;;16.50;99.90;;;;;;5130640;27;19930;-76
2023/07/22 07:32:19;;;;;;;6.88;4.95;;;16.40;99.90;;;;;;5133665;27;20118;-77
2023/07/22 07:34:45;;;;;;;5.70;4.30;;;16.40;99.90;;;;;;5113566;27;20126;-75
2023/07/22 07:37:11;;;;;;;4.40;3.92;;;16.50;99.90;;;;;;5127859;27;20031;-75
2023/07/22 07:39:37;;;;;;;4.60;3.63;;;16.50;1.00;;;;;;5113036;27;20039;-76
2023/07/22 07:42:03;;;;;;;;;;;16.60;1.00;;;;;;5117433;27;20091;-75
2023/07/22 07:44:29;;;;;;;6.03;4.43;;;16.60;99.90;;;;;;5102937;27;19915;-75
2023/07/22 07:46:54;;;;;;;;;;;16.60;99.90;;;;;;5131877;27;20043;-76
2023/07/22 07:49:20;;;;;;;5.65;4.18;;;16.70;99.90;;;;;;5127072;27;19915;-75
2023/07/22 07:51:46;;;;;;;6.63;4.13;;;16.70;99.90;;;;;;5114945;27;20047;-76
2023/07/22 07:54:11;;;;;;;5.70;4.10;;;16.70;99.90;;;;;;5124293;27;20042;-76
2023/07/22 07:56:37;;;;;;;6.20;4.55;;;16.90;99.90;;;;;;5153072;27;20125;-76
2023/07/22 07:59:05;;;;;;;5.63;4.45;;;16.90;99.90;;;;;;5123274;27;20397;-75
2023/07/22 08:01:30;;;;;;;7.22;5.13;;;17.00;99.90;;;;;;5134381;27;20497;-72
2023/07/22 08:03:56;;;;;;;6.70;4.35;;;17.10;1.00;;;;;;5124483;27;20138;-72
2023/07/22 08:06:22;;;;;;;5.40;4.18;;;17.10;99.90;;;;;;5117131;27;20453;-72
2023/07/22 08:08:47;;;;;;;5.55;4.30;;;17.40;1.00;;;;;;5113702;27;20409;-73
2023/07/22 08:11:14;;;;;;;;;;;17.50;6.90;;;;;;5132187;27;20050;-72
2023/07/22 08:13:40;;;;;;;5.63;4.20;;;17.60;99.90;;;;;;5131493;27;19974;-73
2023/07/22 08:16:08;;;;;;;5.43;4.00;;;17.60;72.20;;;;;;5133639;27;20046;-73
2023/07/22 08:18:35;;;;;;;5.05;3.83;;;17.60;99.90;;;;;;5132389;27;20092;-74
2023/07/22 08:21:02;;;;;;;4.65;3.65;;;17.70;85.50;;;;;;5124484;27;20437;-75
2023/07/22 08:23:29;;;;;;;6.15;4.10;;;17.70;1.00;;;;;;5131830;27;20429;-76
2023/07/22 08:25:55;;;;;;;5.15;4.00;;;17.60;1.00;;;;;;5132989;27;20046;-76
2023/07/22 08:28:20;;;;;;;;;;;17.60;99.90;;;;;;5133174;27;20087;-76
2023/07/22 08:30:48;;;;;;;4.57;3.50;;;17.60;1.00;;;;;;5152073;27;19923;-76
2023/07/22 08:33:16;;;;;;;6.32;3.90;;;17.60;1.00;;;;;;5129362;27;20110;-76
2023/07/22 08:35:41;;;;;;;3.95;3.50;;;17.60;99.90;;;;;;5116114;27;20045;-76
2023/07/22 08:38:08;;;;;;;;;;;17.60;99.90;;;;;;5121706;27;20377;-76
2023/07/22 08:40:38;;;;;;;5.30;3.47;;;17.60;99.90;;;;;;5115915;27;19919;-76
2023/07/22 08:43:07;;;;;;;5.32;3.55;;;17.80;99.90;;;;;;5133496;27;20303;-76
2023/07/22 08:45:38;;;;;;;5.00;3.58;;;17.80;99.90;;;;;;5123270;27;20392;-76
2023/07/22 08:48:09;;;;;;;4.65;3.85;;;17.90;99.90;;;;;;5120679;28;20082;-76
2023/07/22 08:50:51;;;;;;;4.63;3.42;;;18.00;99.90;;;;;;5129720;27;20121;-76
2023/07/22 08:53:19;;;;;;;4.63;3.72;;;18.10;99.90;;;;;;5109337;28;20478;-76
2023/07/22 08:55:45;;;;;;;4.35;3.22;;;18.20;99.90;;;;;;5148922;27;20505;-76
2023/07/22 08:58:11;;;;;;;4.80;3.50;;;18.30;1.00;;;;;;5132654;27;20496;-76
2023/07/22 09:00:39;;;;;;;5.13;3.55;;;18.60;99.90;;;;;;5151610;27;20047;-75
2023/07/22 09:03:05;;;;;;;3.67;3.03;;;18.80;99.90;;;;;;5115977;27;20485;-76
2023/07/22 09:05:35;;;;;;;4.65;3.33;;;19.00;99.90;;;;;;5132602;27;20061;-76
2023/07/22 09:08:03;;;;;;;4.43;3.22;;;18.80;12.40;;;;;;5132848;27;20049;-76
2023/07/22 09:10:30;;;;;;;3.30;2.88;;;18.90;64.70;;;;;;5149768;27;20099;-75
2023/07/22 09:12:56;;;;;;;3.33;2.70;;;18.90;66.60;;;;;;5132900;27;20055;-75
2023/07/22 09:15:23;;;;;;;2.95;2.33;;;19.00;99.90;;;;;;5120321;28;20043;-72
2023/07/22 09:17:49;;;;;;;3.35;2.63;;;19.00;75.50;;;;;;5109156;27;20115;-72
2023/07/22 09:20:15;;;;;;;3.42;2.60;;;18.90;1.00;;;;;;5126607;28;20039;-75
2023/07/22 09:22:45;;;;;;;;;;;18.80;3.90;;;;;;5132174;27;20080;-75
2023/07/22 09:25:18;;;;;;;4.03;2.90;;;18.60;1.00;;;;;;5131730;27;19915;-75
2023/07/22 09:27:48;;;;;;;3.50;2.90;;;18.40;99.90;;;;;;5132835;27;20167;-76
2023/07/22 09:30:26;;;;;;;4.40;3.45;;;18.20;99.90;;;;;;5135097;27;20065;-75
2023/07/22 09:32:54;;;;;;;6.18;4.13;;;18.00;99.90;;;;;;5135842;27;20042;-76
2023/07/22 09:35:21;;;;;;;6.63;5.00;;;17.80;99.90;;;;;;5152399;27;20555;-76
2023/07/22 09:37:47;;;;;;;7.65;5.70;;;17.30;4.00;;;;;;5155331;27;20524;-76
2023/07/22 09:40:25;;;;;;;6.72;4.90;;;17.00;1.00;;;;;;5130336;27;20513;-76
2023/07/22 09:43:02;;;;;;;6.45;4.88;;;16.70;99.90;;;;;;5136795;27;20182;-76
2023/07/22 09:45:30;;;;;;;4.68;3.92;;;16.60;99.90;;;;;;5117217;27;20039;-76
2023/07/22 09:47:57;;;;;;;4.88;3.45;;;16.60;99.90;;;;;;5128693;27;20057;-76
2023/07/22 09:50:25;;;;;;;4.15;3.25;;;16.60;99.90;;;;;;5135884;27;20481;-76
2023/07/22 09:52:56;;;;;;;4.15;3.33;;;16.70;99.90;;;;;;5135752;27;20112;-76
2023/07/22 09:55:24;;;;;;;4.28;3.50;;;16.80;99.90;;;;;;5135715;27;20507;-76
2023/07/22 09:57:54;;;;;;;4.30;3.08;;;16.80;99.90;;;;;;5136167;27;20067;-76
2023/07/22 10:00:22;;;;;;;3.42;2.50;;;16.90;99.90;;;;;;5130104;27;20118;-76
2023/07/22 10:02:51;;;;;;;3.30;2.70;;;17.00;99.90;;;;;;5134747;27;20354;-75
2023/07/22 10:05:19;;;;;;;3.45;2.80;;;17.10;99.90;;;;;;5125724;27;20054;-75
2023/07/22 10:07:50;;;;;;;3.83;3.08;;;17.00;99.90;;;;;;5133288;27;20049;-76
2023/07/22 10:10:19;;;;;;;5.65;3.40;;;16.90;99.90;;;;;;5135431;27;20054;-76
2023/07/22 10:12:46;;;;;;;4.13;2.92;;;16.90;99.90;;;;;;5132309;27;20410;-75
2023/07/22 10:15:13;;;;;;;3.08;2.50;;;16.80;99.90;;;;;;5128891;27;20110;-75
2023/07/22 10:17:41;;;;;;;4.68;3.53;;;16.80;99.90;;;;;;5126946;27;20481;-76
2023/07/22 10:20:15;;;;;;;5.22;3.75;;;16.70;99.90;;;;;;5119163;27;20091;-76
2023/07/22 10:22:44;;;;;;;4.13;3.30;;;16.60;99.90;;;;;;5131550;27;20046;-75
2023/07/22 10:25:12;;;;;;;4.82;3.50;;;16.60;99.90;;;;;;5132040;27;20112;-75
2023/07/22 10:27:42;;;;;;;5.07;3.45;;;16.50;99.90;;;;;;5132195;27;20053;-75
2023/07/22 10:30:10;;;;;;;4.20;3.60;;;16.60;99.90;;;;;;5131132;27;20047;-76
2023/07/22 10:32:39;;;;;;;4.05;3.28;;;16.60;99.90;;;;;;5124096;27;20389;-75
2023/07/22 10:35:09;;;;;;;3.78;3.05;;;16.60;99.90;;;;;;5113245;27;20476;-75
2023/07/22 10:37:36;;;;;;;4.05;3.10;;;16.70;99.90;;;;;;5122849;27;20047;-74
2023/07/22 10:40:16;;;;;;;;;;;16.70;99.90;;;;;;5123971;27;20375;-75
2023/07/22 10:42:42;;;;;;;4.57;2.90;;;16.80;99.90;;;;;;5122916;27;19972;-75
2023/07/22 10:45:28;;;;;;;3.83;2.80;;;16.80;99.90;;;;;;5114303;27;20035;-75
2023/07/22 10:48:01;;;;;;;3.50;2.60;;;16.80;99.90;;;;;;5123480;27;20047;-75
2023/07/22 10:50:39;;;;;;;3.67;2.80;;;16.90;99.90;;;;;;5121613;27;20042;-75
2023/07/22 10:53:05;;;;;;;3.72;3.00;;;16.90;99.90;;;;;;5131565;27;20039;-75
2023/07/22 10:55:30;;;;;;;4.22;3.20;;;16.80;99.90;;;;;;5118466;27;20031;-76
2023/07/22 10:58:03;;;;;;;3.92;3.10;;;16.70;99.90;;;;;;5131398;27;20075;-75
2023/07/22 11:00:30;;;;;;;3.67;3.00;;;16.50;99.90;;;;;;5131012;27;20046;-75
2023/07/22 11:03:15;;;;;;;3.83;2.60;;;16.50;99.90;;;;;;5129129;27;20130;-76
2023/07/22 11:05:52;;;;;;;2.67;2.22;;;16.40;99.90;;;;;;5089379;27;20382;-76
2023/07/22 11:08:39;;;;;;;2.90;2.17;;;16.30;99.90;;;;;;5111222;28;20043;-76
2023/07/22 11:11:05;;;;;;;2.58;2.30;;;16.20;99.90;;;;;;5128128;27;20434;-75
2023/07/22 11:13:39;;;;;;;2.58;2.10;;;16.20;99.90;;;;;;5139601;27;20143;-75
2023/07/22 11:16:08;;;;;;;2.67;1.90;;;16.20;99.90;;;;;;5132698;27;20042;-75
2023/07/22 11:18:39;;;;;;;3.22;1.58;;;16.30;99.90;;;;;;5098168;27;20039;-76
2023/07/22 11:21:12;;;;;;;3.03;2.00;;;16.30;99.90;;;;;;5120173;27;20398;-76
2023/07/22 11:23:37;;;;;;;2.95;1.92;;;16.30;99.90;;;;;;5126194;27;20039;-76
2023/07/22 11:26:04;;;;;;;2.60;2.08;;;16.20;99.90;;;;;;5127297;27;20050;-76
2023/07/22 11:28:30;;;;;;;;;;;16.30;99.90;;;;;;5104356;27;20126;-76
2023/07/22 11:30:56;;;;;;;2.92;1.98;;;16.20;99.90;;;;;;5117256;27;19919;-76
2023/07/22 11:33:22;;;;;;;2.40;1.80;;;16.10;99.90;;;;;;5132923;27;20046;-76
2023/07/22 11:35:47;;;;;;;2.60;1.88;;;16.10;99.90;;;;;;5134126;27;20042;-76
2023/07/22 11:38:13;;;;;;;2.22;1.50;;;16.00;99.90;;;;;;5130015;27;20046;-76
2023/07/22 11:40:39;;;;;;;2.10;1.88;;;16.00;99.90;;;;;;5150574;27;20465;-76
2023/07/22 11:43:05;;;;;;;2.35;1.83;;;16.00;99.90;;;;;;5133274;27;20169;-76
2023/07/22 11:45:32;;;;;;;2.67;2.10;;;16.00;99.90;;;;;;5122222;27;20095;-76
2023/07/22 11:47:57;;;;;;;2.80;2.17;;;16.00;99.90;;;;;;5104647;27;20198;-76
2023/07/22 11:50:33;;;;;;;3.25;2.40;;;15.90;99.90;;;;;;5132752;27;20202;-76
2023/07/22 11:52:59;;;;;;;2.75;2.42;;;15.90;99.90;;;;;;5152119;27;20044;-77
2023/07/22 11:55:25;;;;;;;2.60;2.22;;;15.90;99.90;;;;;;5117295;27;20391;-77
2023/07/22 11:57:54;;;;;;;2.30;2.05;;;16.00;99.90;;;;;;5086970;27;20050;-77
2023/07/22 12:00:22;;;;;;;2.40;2.10;;;16.00;99.90;;;;;;5126705;27;20421;-76
2023/07/22 12:02:47;;;;;;;2.92;2.53;;;16.00;99.90;;;;;;5112142;27;20098;-77
2023/07/22 12:05:21;;;;;;;3.22;2.58;;;16.10;99.90;;;;;;5117433;27;20387;-77
2023/07/22 12:07:46;;;;;;;2.53;2.20;;;16.10;99.90;;;;;;5133846;27;20077;-76
2023/07/22 12:10:13;;;;;;;2.92;2.20;;;16.10;99.90;;;;;;5114019;27;20082;-77
2023/07/22 12:12:41;;;;;;;2.75;2.10;;;16.20;99.90;;;;;;5112936;27;20441;-76
2023/07/22 12:15:15;;;;;;;2.97;1.98;;;16.30;99.90;;;;;;5134643;27;20110;-76
2023/07/22 12:17:50;;;;;;;2.63;2.00;;;16.20;99.90;;;;;;5134152;27;20043;-77
2023/07/22 12:20:17;;;;;;;2.50;2.00;;;16.30;99.90;;;;;;5125437;27;20039;-76
2023/07/22 12:22:43;;;;;;;3.25;2.75;;;16.40;99.90;;;;;;5130537;27;20114;-77
2023/07/22 12:25:09;;;;;;;;;;;16.40;99.90;;;;;;5134877;27;20050;-76
2023/07/22 12:27:34;;;;;;;2.95;2.40;;;16.40;99.90;;;;;;5128647;27;19922;-77
2023/07/22 12:30:00;;;;;;;3.13;2.67;;;16.40;99.90;;;;;;5119518;27;20042;-77
2023/07/22 12:32:26;;;;;;;3.20;2.60;;;16.40;99.90;;;;;;5130206;27;20041;-76
2023/07/22 12:34:51;;;;;;;2.20;2.00;;;16.40;99.90;;;;;;5085791;27;20043;-77
2023/07/22 12:37:17;;;;;;;3.38;2.70;;;16.50;99.90;;;;;;5134194;27;20352;-77
2023/07/22 12:39:43;;;;;;;3.60;2.70;;;16.50;99.90;;;;;;5133942;27;20049;-77
2023/07/22 12:42:09;;;;;;;2.97;2.67;;;16.50;99.90;;;;;;5127833;27;20051;-76
2023/07/22 12:44:35;;;;;;;3.63;2.60;;;16.50;99.90;;;;;;5113812;28;20051;-76
2023/07/22 12:47:02;;;;;;;3.55;3.10;;;16.40;99.90;;;;;;5114585;27;20088;-77
2023/07/22 12:49:27;;;;;;;3.03;2.72;;;16.30;99.90;;;;;;5080039;28;20038;-77
2023/07/22 12:51:53;;;;;;;3.08;2.78;;;16.30;99.90;;;;;;5130402;27;20350;-77